Flight Track Log - Related Links

Times and Time Zones

All times are in EDT time to prevent confusion due to time zone crossing. See the PDT4226 flight status page for this flight to view local times or setup timezone preferences in your user account.

Time Position Orientation Groundspeed Altitude Reporting Facility
EDT Latitude Longitude Course Direction KTS MPH feet Rate Location/Type
Sat 02:27:00 PM 41.6007 -75.7822 162° South  Level Estimated
Sat 02:28:00 PM 41.3994 -75.7095 165° South  Level FlightAware Approximate
Sat 02:29:00 PM 41.1966 -75.6460 163° South  Level Estimated
Sat 02:30:00 PM 40.9936 -75.5828 190° South  Level Estimated
Sat 02:31:00 PM 40.7907 -75.5201 187° South  Level Estimated
Sat 02:32:00 PM 40.5877 -75.4577 190° South  Level Estimated
Sat 02:33:00 PM 40.3847 -75.3957 143° Southeast  Level Estimated
Sat 02:34:00 PM 40.1816 -75.3340 150° Southeast  Level Estimated
Sat 02:35:00 PM 39.9785 -75.2728 150° Southeast  Level Estimated
Sat 02:36:00 PM 39.8667 -75.2333 150° Southeast  Level FlightAware Approximate
Sat 02:37:00 PM 39.8722 -75.2409 150° Southeast  Level Estimated
Sat 02:38:00 PM 39.8722 -75.2409 150° Southeast  Level Estimated
Sat 02:39:00 PM 39.8722 -75.2409 150° Southeast  Level Estimated
Sat 02:40:00 PM 39.8722 -75.2409 150° Southeast  Level Estimated
Sat 02:41:00 PM 39.8722 -75.2409 150° Southeast  Level Estimated
Sat 02:42:00 PM 39.8722 -75.2409 150° Southeast  Level Estimated
Sat 02:43:00 PM 39.8722 -75.2409 150° Southeast  Level Estimated
Sat 02:44:00 PM 39.8722 -75.2409 150° Southeast  Level Estimated
Sat 02:45:00 PM 39.8722 -75.2409 150° Southeast  Level Estimated
Sat 02:46:00 PM 39.8722 -75.2409 150° Southeast  Level Estimated
Sat 02:47:00 PM 39.8722 -75.2409 150° Southeast  Level Estimated
Sat 02:48:00 PM 39.8722 -75.2409 150° Southeast  Level Estimated
Sat 02:49:00 PM 39.8722 -75.2409 150° Southeast  Level Estimated
Sat 02:50:00 PM 39.8722 -75.2409 150° Southeast  Level Estimated
Sat 02:50:17 PM 40.7833 -75.5667 150° Southeast 214 246 7,900  Level Philadelphia TRACON
Sat 02:51:00 PM 39.8722 -75.2409 150° Southeast  Level Estimated
Sat 02:51:29 PM 40.7167 -75.5667 180° South 249 287 7,000  Level Philadelphia TRACON
Sat 02:52:00 PM 39.8722 -75.2409 150° Southeast  Level Estimated
Sat 02:52:29 PM 40.6500 -75.5667 180° South 226 260 7,000  Level Philadelphia TRACON
Sat 02:53:24 PM 40.5833 -75.5667 180° South 219 252 7,000 -50 Level Philadelphia TRACON
Sat 02:54:29 PM 40.5167 -75.5667 180° South 219 252 6,900 -48 Descending Philadelphia TRACON
Sat 02:55:29 PM 40.4667 -75.5667 180° South 218 251 6,900 52 Level Philadelphia TRACON
Sat 02:56:24 PM 40.4167 -75.5167 143° Southeast 244 281 7,000 -52 Climbing Philadelphia TRACON
Sat 02:57:24 PM 40.3667 -75.4667 143° Southeast 235 270 6,800 -550 Descending Philadelphia TRACON
Sat 02:58:24 PM 40.3000 -75.4167 150° Southeast 256 295 5,900 -450 Descending Philadelphia TRACON
Sat 02:59:24 PM 40.2500 -75.3500 134° Southeast 244 281 5,900  Level Philadelphia TRACON
Sat 03:00:24 PM 40.2000 -75.3000 143° Southeast 234 269 5,900  Level Philadelphia TRACON
Sat 03:01:24 PM 40.1500 -75.2500 143° Southeast 224 258 5,900  Level Philadelphia TRACON
Sat 03:02:24 PM 40.1000 -75.2000 143° Southeast 222 255 5,900  Level Philadelphia TRACON
Sat 03:03:18 PM 40.0833 -75.1333 108° East 231 266 5,900  Level Philadelphia TRACON
Sat 03:04:18 PM 40.0667 -75.0667 108° East 207 238 5,900 -500 Level Philadelphia TRACON
Sat 03:05:18 PM 40.0333 -75.0000 123° Southeast 201 231 4,900 -1,150 Descending Philadelphia TRACON
Sat 03:06:18 PM 39.9833 -75.0000 180° South 169 194 3,600 -1,273 Descending Philadelphia TRACON
Sat 03:07:30 PM 39.9333 -75.0167 194° South 172 198 2,100 -722 Descending Philadelphia TRACON
Sat 03:08:31 PM 39.9167 -75.0667 247° West 154 177 2,000 -298 Descending Philadelphia TRACON
Sat 03:09:31 PM 39.9000 -75.1333 252° West 160 184 1,500 -579 Descending Philadelphia TRACON
Sat 03:10:25 PM 39.9000 -75.1667 270° West 107 123 900 -684 Descending Philadelphia TRACON
Sat 03:11:25 PM 39.8833 -75.2000 237° Southwest 109 125 200 -700 Descending Philadelphia TRACON

Login

Don't have an account? Register now (free) for customized features, flight alerts, and more!